sensor_id;sensor_type;location;lat;lon;timestamp;temperature;humidity
17529;DHT22;8882;53.192;8.184;2023-02-26T08:02:04;0.90;99.90
17529;DHT22;8882;53.192;8.184;2023-02-26T08:04:30;1.00;99.90
17529;DHT22;8882;53.192;8.184;2023-02-26T08:06:58;1.10;99.90
17529;DHT22;8882;53.192;8.184;2023-02-26T08:09:23;1.10;99.90
17529;DHT22;8882;53.192;8.184;2023-02-26T08:11:50;1.30;99.90
17529;DHT22;8882;53.192;8.184;2023-02-26T08:14:15;1.40;99.90
17529;DHT22;8882;53.192;8.184;2023-02-26T08:16:41;1.60;99.90
17529;DHT22;8882;53.192;8.184;2023-02-26T08:19:06;1.60;99.90
17529;DHT22;8882;53.192;8.184;2023-02-26T08:21:32;1.60;99.90
17529;DHT22;8882;53.192;8.184;2023-02-26T08:23:58;1.60;99.90
17529;DHT22;8882;53.192;8.184;2023-02-26T08:26:23;1.60;99.90
17529;DHT22;8882;53.192;8.184;2023-02-26T08:28:49;1.60;99.90
17529;DHT22;8882;53.192;8.184;2023-02-26T08:31:15;1.70;99.90
17529;DHT22;8882;53.192;8.184;2023-02-26T08:33:40;1.80;99.90
17529;DHT22;8882;53.192;8.184;2023-02-26T08:36:06;1.80;99.90
17529;DHT22;8882;53.192;8.184;2023-02-26T08:38:32;1.90;99.90
17529;DHT22;8882;53.192;8.184;2023-02-26T08:40:58;1.90;99.90
17529;DHT22;8882;53.192;8.184;2023-02-26T08:43:24;2.10;99.90
17529;DHT22;8882;53.192;8.184;2023-02-26T08:45:53;2.20;99.90
17529;DHT22;8882;53.192;8.184;2023-02-26T08:48:20;2.30;99.90
17529;DHT22;8882;53.192;8.184;2023-02-26T08:50:46;2.40;99.90
17529;DHT22;8882;53.192;8.184;2023-02-26T08:53:12;2.50;99.90
17529;DHT22;8882;53.192;8.184;2023-02-26T08:55:38;2.50;99.90
17529;DHT22;8882;53.192;8.184;2023-02-26T08:58:03;2.60;99.90
17529;DHT22;8882;53.192;8.184;2023-02-26T09:00:29;2.60;99.90
17529;DHT22;8882;53.192;8.184;2023-02-26T09:02:55;2.70;99.90
17529;DHT22;8882;53.192;8.184;2023-02-26T09:05:21;2.70;99.90
17529;DHT22;8882;53.192;8.184;2023-02-26T09:07:46;2.80;99.90
17529;DHT22;8882;53.192;8.184;2023-02-26T09:10:13;2.90;99.90
17529;DHT22;8882;53.192;8.184;2023-02-26T09:12:38;2.90;99.90
17529;DHT22;8882;53.192;8.184;2023-02-26T09:15:05;3.10;99.90
17529;DHT22;8882;53.192;8.184;2023-02-26T09:17:32;3.10;99.90
17529;DHT22;8882;53.192;8.184;2023-02-26T09:19:58;3.20;99.90
17529;DHT22;8882;53.192;8.184;2023-02-26T09:22:23;3.30;99.90
17529;DHT22;8882;53.192;8.184;2023-02-26T09:24:49;3.30;99.90
17529;DHT22;8882;53.192;8.184;2023-02-26T09:27:15;3.40;99.90
17529;DHT22;8882;53.192;8.184;2023-02-26T09:29:41;3.50;99.90
17529;DHT22;8882;53.192;8.184;2023-02-26T09:32:06;3.50;99.90
17529;DHT22;8882;53.192;8.184;2023-02-26T09:34:36;3.60;99.90
17529;DHT22;8882;53.192;8.184;2023-02-26T09:37:03;3.60;99.90
17529;DHT22;8882;53.192;8.184;2023-02-26T09:39:29;3.70;99.90
17529;DHT22;8882;53.192;8.184;2023-02-26T09:41:57;3.70;99.90
17529;DHT22;8882;53.192;8.184;2023-02-26T09:44:27;3.70;99.90
17529;DHT22;8882;53.192;8.184;2023-02-26T09:47:19;3.80;99.90
17529;DHT22;8882;53.192;8.184;2023-02-26T09:55:35;4.00;99.90
17529;DHT22;8882;53.192;8.184;2023-02-26T09:58:09;4.10;99.90
17529;DHT22;8882;53.192;8.184;2023-02-26T10:06:20;4.30;99.90
17529;DHT22;8882;53.192;8.184;2023-02-26T10:31:21;4.30;99.90
17529;DHT22;8882;53.192;8.184;2023-02-26T10:34:17;4.50;99.90
17529;DHT22;8882;53.192;8.184;2023-02-26T10:37:02;4.60;99.90
17529;DHT22;8882;53.192;8.184;2023-02-26T10:39:54;4.50;99.90
17529;DHT22;8882;53.192;8.184;2023-02-26T10:42:35;4.60;99.90
17529;DHT22;8882;53.192;8.184;2023-02-26T10:48:27;4.60;99.90
17529;DHT22;8882;53.192;8.184;2023-02-26T10:50:56;4.60;99.90
17529;DHT22;8882;53.192;8.184;2023-02-26T10:53:23;4.50;99.90
17529;DHT22;8882;53.192;8.184;2023-02-26T10:56:09;4.40;99.90
17529;DHT22;8882;53.192;8.184;2023-02-26T10:58:36;4.30;99.90
17529;DHT22;8882;53.192;8.184;2023-02-26T11:01:01;4.30;99.90
17529;DHT22;8882;53.192;8.184;2023-02-26T11:03:34;4.40;99.90
17529;DHT22;8882;53.192;8.184;2023-02-26T11:06:01;4.60;99.90
17529;DHT22;8882;53.192;8.184;2023-02-26T11:08:41;4.70;99.90
17529;DHT22;8882;53.192;8.184;2023-02-26T11:11:08;4.70;99.90
17529;DHT22;8882;53.192;8.184;2023-02-26T11:13:36;4.70;99.90
17529;DHT22;8882;53.192;8.184;2023-02-26T11:16:08;4.70;99.90
17529;DHT22;8882;53.192;8.184;2023-02-26T11:18:41;4.70;99.90
17529;DHT22;8882;53.192;8.184;2023-02-26T11:21:16;4.60;99.90
17529;DHT22;8882;53.192;8.184;2023-02-26T11:23:42;4.50;99.90
17529;DHT22;8882;53.192;8.184;2023-02-26T11:26:16;4.40;99.90
17529;DHT22;8882;53.192;8.184;2023-02-26T11:28:44;4.50;99.90
17529;DHT22;8882;53.192;8.184;2023-02-26T11:31:15;4.60;99.90
17529;DHT22;8882;53.192;8.184;2023-02-26T11:33:51;4.70;99.90
17529;DHT22;8882;53.192;8.184;2023-02-26T11:36:24;4.80;99.90
17529;DHT22;8882;53.192;8.184;2023-02-26T11:38:59;4.90;99.90
17529;DHT22;8882;53.192;8.184;2023-02-26T11:41:27;4.80;99.90
17529;DHT22;8882;53.192;8.184;2023-02-26T11:44:04;4.70;99.90
17529;DHT22;8882;53.192;8.184;2023-02-26T11:46:36;4.70;99.90
17529;DHT22;8882;53.192;8.184;2023-02-26T11:49:04;4.80;99.90
17529;DHT22;8882;53.192;8.184;2023-02-26T11:51:29;4.80;99.90
17529;DHT22;8882;53.192;8.184;2023-02-26T11:53:57;4.90;99.90
17529;DHT22;8882;53.192;8.184;2023-02-26T11:56:30;5.00;99.90
17529;DHT22;8882;53.192;8.184;2023-02-26T11:59:05;5.20;99.90
17529;DHT22;8882;53.192;8.184;2023-02-26T12:01:34;5.20;99.90
17529;DHT22;8882;53.192;8.184;2023-02-26T12:04:02;5.50;99.90
17529;DHT22;8882;53.192;8.184;2023-02-26T12:06:30;5.70;99.90
17529;DHT22;8882;53.192;8.184;2023-02-26T12:08:55;5.70;99.90
17529;DHT22;8882;53.192;8.184;2023-02-26T12:17:30;5.70;99.90
17529;DHT22;8882;53.192;8.184;2023-02-26T12:25:35;5.70;99.90
17529;DHT22;8882;53.192;8.184;2023-02-26T12:31:16;5.60;99.90
17529;DHT22;8882;53.192;8.184;2023-02-26T12:39:31;6.00;99.90
17529;DHT22;8882;53.192;8.184;2023-02-26T12:53:38;6.30;99.90
17529;DHT22;8882;53.192;8.184;2023-02-26T12:59:21;6.10;99.90
17529;DHT22;8882;53.192;8.184;2023-02-26T13:15:50;6.00;99.90
17529;DHT22;8882;53.192;8.184;2023-02-26T13:21:31;6.00;99.90
17529;DHT22;8882;53.192;8.184;2023-02-26T13:24:05;6.20;99.90
17529;DHT22;8882;53.192;8.184;2023-02-26T13:26:32;6.20;99.90
17529;DHT22;8882;53.192;8.184;2023-02-26T13:29:07;6.10;99.90
17529;DHT22;8882;53.192;8.184;2023-02-26T13:31:55;6.00;99.90
17529;DHT22;8882;53.192;8.184;2023-02-26T13:34:35;5.70;99.90
17529;DHT22;8882;53.192;8.184;2023-02-26T13:37:04;5.60;99.90
17529;DHT22;8882;53.192;8.184;2023-02-26T13:39:42;5.60;99.90
17529;DHT22;8882;53.192;8.184;2023-02-26T13:42:44;5.60;99.90
17529;DHT22;8882;53.192;8.184;2023-02-26T13:45:22;5.50;99.90
17529;DHT22;8882;53.192;8.184;2023-02-26T13:53:51;5.40;99.90
17529;DHT22;8882;53.192;8.184;2023-02-26T14:01:28;5.60;99.90
17529;DHT22;8882;53.192;8.184;2023-02-26T14:04:24;5.50;99.90
17529;DHT22;8882;53.192;8.184;2023-02-26T14:09:45;5.50;99.90
17529;DHT22;8882;53.192;8.184;2023-02-26T14:15:26;5.60;99.90
17529;DHT22;8882;53.192;8.184;2023-02-26T14:18:01;5.70;99.90
17529;DHT22;8882;53.192;8.184;2023-02-26T14:20:33;5.70;99.90
17529;DHT22;8882;53.192;8.184;2023-02-26T14:25:44;5.80;99.90
17529;DHT22;8882;53.192;8.184;2023-02-26T14:31:06;5.80;99.90
17529;DHT22;8882;53.192;8.184;2023-02-26T14:33:44;5.70;99.90
17529;DHT22;8882;53.192;8.184;2023-02-26T14:39:04;5.60;99.90
17529;DHT22;8882;53.192;8.184;2023-02-26T14:41:33;5.70;99.90
17529;DHT22;8882;53.192;8.184;2023-02-26T14:44:13;5.70;99.90
17529;DHT22;8882;53.192;8.184;2023-02-26T14:46:41;5.60;99.90
17529;DHT22;8882;53.192;8.184;2023-02-26T14:49:24;5.50;99.90
17529;DHT22;8882;53.192;8.184;2023-02-26T15:00:40;5.50;99.90
17529;DHT22;8882;53.192;8.184;2023-02-26T15:05:41;5.30;99.90
17529;DHT22;8882;53.192;8.184;2023-02-26T15:08:33;5.30;99.90
17529;DHT22;8882;53.192;8.184;2023-02-26T15:11:07;5.20;99.90
17529;DHT22;8882;53.192;8.184;2023-02-26T15:13:50;5.20;99.90
17529;DHT22;8882;53.192;8.184;2023-02-26T15:24:10;5.10;99.90
17529;DHT22;8882;53.192;8.184;2023-02-26T15:26:41;5.00;99.90
17529;DHT22;8882;53.192;8.184;2023-02-26T15:29:11;4.90;99.90
17529;DHT22;8882;53.192;8.184;2023-02-26T15:32:05;4.90;99.90
17529;DHT22;8882;53.192;8.184;2023-02-26T15:34:44;4.80;99.90
17529;DHT22;8882;53.192;8.184;2023-02-26T15:37:19;4.70;99.90
17529;DHT22;8882;53.192;8.184;2023-02-26T15:39:51;4.60;99.90
17529;DHT22;8882;53.192;8.184;2023-02-26T15:42:18;4.60;99.90
17529;DHT22;8882;53.192;8.184;2023-02-26T15:44:44;4.60;99.90
17529;DHT22;8882;53.192;8.184;2023-02-26T15:47:14;4.50;99.90
17529;DHT22;8882;53.192;8.184;2023-02-26T15:49:43;4.50;99.90
17529;DHT22;8882;53.192;8.184;2023-02-26T15:52:14;4.50;99.90
17529;DHT22;8882;53.192;8.184;2023-02-26T15:54:45;4.50;99.90
17529;DHT22;8882;53.192;8.184;2023-02-26T15:57:12;4.50;99.90
17529;DHT22;8882;53.192;8.184;2023-02-26T15:59:43;4.50;99.90
17529;DHT22;8882;53.192;8.184;2023-02-26T16:02:19;4.40;99.90
17529;DHT22;8882;53.192;8.184;2023-02-26T16:04:45;4.30;99.90
17529;DHT22;8882;53.192;8.184;2023-02-26T16:07:11;4.30;99.90
17529;DHT22;8882;53.192;8.184;2023-02-26T16:09:46;4.30;99.90
17529;DHT22;8882;53.192;8.184;2023-02-26T16:12:38;4.20;99.90
17529;DHT22;8882;53.192;8.184;2023-02-26T16:15:15;4.20;99.90
17529;DHT22;8882;53.192;8.184;2023-02-26T16:17:44;4.20;99.90
17529;DHT22;8882;53.192;8.184;2023-02-26T16:20:21;4.10;99.90
17529;DHT22;8882;53.192;8.184;2023-02-26T16:22:49;4.10;99.90
17529;DHT22;8882;53.192;8.184;2023-02-26T16:25:23;4.00;99.90
17529;DHT22;8882;53.192;8.184;2023-02-26T16:28:03;4.00;99.90
17529;DHT22;8882;53.192;8.184;2023-02-26T16:30:35;3.90;99.90
17529;DHT22;8882;53.192;8.184;2023-02-26T16:33:03;3.90;99.90
17529;DHT22;8882;53.192;8.184;2023-02-26T16:35:36;3.80;99.90
17529;DHT22;8882;53.192;8.184;2023-02-26T16:38:20;3.90;99.90
17529;DHT22;8882;53.192;8.184;2023-02-26T16:40:47;3.80;99.90
17529;DHT22;8882;53.192;8.184;2023-02-26T16:43:33;3.80;99.90
17529;DHT22;8882;53.192;8.184;2023-02-26T16:46:02;3.70;99.90
17529;DHT22;8882;53.192;8.184;2023-02-26T16:48:31;3.70;99.90
17529;DHT22;8882;53.192;8.184;2023-02-26T16:51:10;3.60;99.90
17529;DHT22;8882;53.192;8.184;2023-02-26T16:53:41;3.60;99.90
17529;DHT22;8882;53.192;8.184;2023-02-26T16:56:11;3.50;99.90
17529;DHT22;8882;53.192;8.184;2023-02-26T16:58:43;3.50;99.90
17529;DHT22;8882;53.192;8.184;2023-02-26T17:01:14;3.50;99.90
17529;DHT22;8882;53.192;8.184;2023-02-26T17:03:40;3.40;99.90
17529;DHT22;8882;53.192;8.184;2023-02-26T17:06:10;4.10;99.90
17529;DHT22;8882;53.192;8.184;2023-02-26T17:11:22;5.00;99.90
17529;DHT22;8882;53.192;8.184;2023-02-26T17:14:11;4.60;99.90
17529;DHT22;8882;53.192;8.184;2023-02-26T17:16:37;4.20;99.90
17529;DHT22;8882;53.192;8.184;2023-02-26T17:19:03;3.90;99.90
17529;DHT22;8882;53.192;8.184;2023-02-26T17:21:29;3.60;99.90
17529;DHT22;8882;53.192;8.184;2023-02-26T17:23:55;3.50;99.90
17529;DHT22;8882;53.192;8.184;2023-02-26T17:26:20;3.40;99.90
17529;DHT22;8882;53.192;8.184;2023-02-26T17:28:48;3.30;99.90
17529;DHT22;8882;53.192;8.184;2023-02-26T17:31:13;3.20;99.90
17529;DHT22;8882;53.192;8.184;2023-02-26T17:33:40;3.10;99.90
17529;DHT22;8882;53.192;8.184;2023-02-26T17:36:12;3.10;99.90
17529;DHT22;8882;53.192;8.184;2023-02-26T17:38:39;3.10;99.90
17529;DHT22;8882;53.192;8.184;2023-02-26T17:41:07;3.00;99.90
17529;DHT22;8882;53.192;8.184;2023-02-26T17:43:33;3.00;99.90
17529;DHT22;8882;53.192;8.184;2023-02-26T17:45:58;2.90;99.90
17529;DHT22;8882;53.192;8.184;2023-02-26T17:48:24;2.90;99.90
17529;DHT22;8882;53.192;8.184;2023-02-26T17:50:52;2.90;99.90
17529;DHT22;8882;53.192;8.184;2023-02-26T17:53:20;2.90;99.90
17529;DHT22;8882;53.192;8.184;2023-02-26T17:55:46;2.80;99.90
17529;DHT22;8882;53.192;8.184;2023-02-26T17:58:16;2.80;99.90
17529;DHT22;8882;53.192;8.184;2023-02-26T18:00:42;2.80;99.90
17529;DHT22;8882;53.192;8.184;2023-02-26T18:03:09;2.70;99.90
17529;DHT22;8882;53.192;8.184;2023-02-26T18:05:36;2.70;99.90
17529;DHT22;8882;53.192;8.184;2023-02-26T18:08:19;2.70;99.90
17529;DHT22;8882;53.192;8.184;2023-02-26T18:10:45;2.70;99.90
17529;DHT22;8882;53.192;8.184;2023-02-26T18:13:11;2.60;99.90
17529;DHT22;8882;53.192;8.184;2023-02-26T18:15:36;2.60;99.90
17529;DHT22;8882;53.192;8.184;2023-02-26T18:18:02;2.60;99.90
17529;DHT22;8882;53.192;8.184;2023-02-26T18:20:30;2.50;99.90
17529;DHT22;8882;53.192;8.184;2023-02-26T18:22:56;2.50;99.90
17529;DHT22;8882;53.192;8.184;2023-02-26T18:25:21;2.50;99.90
17529;DHT22;8882;53.192;8.184;2023-02-26T18:27:50;2.50;99.90
17529;DHT22;8882;53.192;8.184;2023-02-26T18:30:23;2.40;99.90
17529;DHT22;8882;53.192;8.184;2023-02-26T18:32:49;2.40;99.90
17529;DHT22;8882;53.192;8.184;2023-02-26T18:35:15;2.40;99.90
17529;DHT22;8882;53.192;8.184;2023-02-26T18:37:42;2.40;99.90
17529;DHT22;8882;53.192;8.184;2023-02-26T18:40:15;2.40;99.90
17529;DHT22;8882;53.192;8.184;2023-02-26T18:42:41;2.40;99.90
17529;DHT22;8882;53.192;8.184;2023-02-26T18:45:07;2.30;99.90
17529;DHT22;8882;53.192;8.184;2023-02-26T18:47:32;2.30;99.90
17529;DHT22;8882;53.192;8.184;2023-02-26T18:49:58;2.30;99.90
17529;DHT22;8882;53.192;8.184;2023-02-26T18:52:23;2.30;99.90
17529;DHT22;8882;53.192;8.184;2023-02-26T18:54:49;2.30;99.90
17529;DHT22;8882;53.192;8.184;2023-02-26T18:57:15;2.30;99.90
17529;DHT22;8882;53.192;8.184;2023-02-26T18:59:41;2.30;99.90
17529;DHT22;8882;53.192;8.184;2023-02-26T19:02:07;2.30;99.90
17529;DHT22;8882;53.192;8.184;2023-02-26T19:04:36;2.30;99.90
17529;DHT22;8882;53.192;8.184;2023-02-26T19:07:02;2.30;99.90
17529;DHT22;8882;53.192;8.184;2023-02-26T19:09:28;2.30;99.90
17529;DHT22;8882;53.192;8.184;2023-02-26T19:11:57;2.20;99.90
17529;DHT22;8882;53.192;8.184;2023-02-26T19:14:23;2.20;99.90
17529;DHT22;8882;53.192;8.184;2023-02-26T19:16:49;2.20;99.90
17529;DHT22;8882;53.192;8.184;2023-02-26T19:19:15;2.10;99.90
17529;DHT22;8882;53.192;8.184;2023-02-26T19:21:40;2.10;99.90
17529;DHT22;8882;53.192;8.184;2023-02-26T19:24:08;2.00;99.90
17529;DHT22;8882;53.192;8.184;2023-02-26T19:26:34;1.90;99.90
17529;DHT22;8882;53.192;8.184;2023-02-26T19:29:01;1.90;99.90
17529;DHT22;8882;53.192;8.184;2023-02-26T19:31:26;1.90;99.90
17529;DHT22;8882;53.192;8.184;2023-02-26T19:33:52;1.80;99.90
17529;DHT22;8882;53.192;8.184;2023-02-26T19:36:17;1.80;99.90
17529;DHT22;8882;53.192;8.184;2023-02-26T19:38:49;1.80;99.90
17529;DHT22;8882;53.192;8.184;2023-02-26T19:41:16;1.70;99.90
17529;DHT22;8882;53.192;8.184;2023-02-26T19:43:47;1.70;99.90
17529;DHT22;8882;53.192;8.184;2023-02-26T19:46:14;1.70;99.90
17529;DHT22;8882;53.192;8.184;2023-02-26T19:48:40;1.60;99.90
17529;DHT22;8882;53.192;8.184;2023-02-26T19:51:06;1.60;99.90
17529;DHT22;8882;53.192;8.184;2023-02-26T19:53:32;1.50;99.90
17529;DHT22;8882;53.192;8.184;2023-02-26T19:55:59;1.50;99.90
17529;DHT22;8882;53.192;8.184;2023-02-26T19:58:25;1.40;99.90
17529;DHT22;8882;53.192;8.184;2023-02-26T20:00:55;1.50;99.90
17529;DHT22;8882;53.192;8.184;2023-02-26T20:03:21;1.40;99.90
17529;DHT22;8882;53.192;8.184;2023-02-26T20:05:47;1.40;99.90
17529;DHT22;8882;53.192;8.184;2023-02-26T20:08:13;1.40;99.90
17529;DHT22;8882;53.192;8.184;2023-02-26T20:10:39;1.40;99.90
17529;DHT22;8882;53.192;8.184;2023-02-26T20:13:05;1.40;99.90
17529;DHT22;8882;53.192;8.184;2023-02-26T20:15:31;1.30;99.90
17529;DHT22;8882;53.192;8.184;2023-02-26T20:17:57;1.20;99.90
17529;DHT22;8882;53.192;8.184;2023-02-26T20:20:23;1.20;99.90
17529;DHT22;8882;53.192;8.184;2023-02-26T20:22:48;1.20;99.90
17529;DHT22;8882;53.192;8.184;2023-02-26T20:25:14;1.20;99.90
17529;DHT22;8882;53.192;8.184;2023-02-26T20:27:39;1.20;99.90
17529;DHT22;8882;53.192;8.184;2023-02-26T20:30:06;1.20;99.90
17529;DHT22;8882;53.192;8.184;2023-02-26T20:32:31;1.20;99.90
17529;DHT22;8882;53.192;8.184;2023-02-26T20:34:57;1.10;99.90
17529;DHT22;8882;53.192;8.184;2023-02-26T20:37:22;1.10;99.90
17529;DHT22;8882;53.192;8.184;2023-02-26T20:39:48;1.10;99.90
17529;DHT22;8882;53.192;8.184;2023-02-26T20:42:14;1.00;99.90
17529;DHT22;8882;53.192;8.184;2023-02-26T20:44:41;1.10;99.90
17529;DHT22;8882;53.192;8.184;2023-02-26T20:47:06;1.00;99.90
17529;DHT22;8882;53.192;8.184;2023-02-26T20:49:32;1.00;99.90
17529;DHT22;8882;53.192;8.184;2023-02-26T20:51:57;1.00;99.90
17529;DHT22;8882;53.192;8.184;2023-02-26T20:54:23;0.90;99.90
17529;DHT22;8882;53.192;8.184;2023-02-26T20:56:49;0.90;99.90
17529;DHT22;8882;53.192;8.184;2023-02-26T20:59:16;0.90;99.90
17529;DHT22;8882;53.192;8.184;2023-02-26T21:01:42;0.90;99.90
17529;DHT22;8882;53.192;8.184;2023-02-26T21:04:08;0.80;99.90
17529;DHT22;8882;53.192;8.184;2023-02-26T21:06:34;0.80;99.90
17529;DHT22;8882;53.192;8.184;2023-02-26T21:09:00;0.70;99.90
17529;DHT22;8882;53.192;8.184;2023-02-26T21:11:27;0.60;99.90
17529;DHT22;8882;53.192;8.184;2023-02-26T21:14:00;0.60;99.90
17529;DHT22;8882;53.192;8.184;2023-02-26T21:16:26;0.60;99.90
17529;DHT22;8882;53.192;8.184;2023-02-26T21:18:56;0.60;99.90
17529;DHT22;8882;53.192;8.184;2023-02-26T21:21:22;0.60;99.90
17529;DHT22;8882;53.192;8.184;2023-02-26T21:23:48;0.60;99.90
17529;DHT22;8882;53.192;8.184;2023-02-26T21:26:15;0.50;99.90
17529;DHT22;8882;53.192;8.184;2023-02-26T21:28:41;0.60;99.90
17529;DHT22;8882;53.192;8.184;2023-02-26T21:31:11;0.50;99.90
17529;DHT22;8882;53.192;8.184;2023-02-26T21:33:36;0.50;99.90
17529;DHT22;8882;53.192;8.184;2023-02-26T21:36:02;0.50;99.90
17529;DHT22;8882;53.192;8.184;2023-02-26T21:38:27;0.50;99.90
17529;DHT22;8882;53.192;8.184;2023-02-26T21:40:53;0.50;99.90
17529;DHT22;8882;53.192;8.184;2023-02-26T21:43:19;0.50;99.90
17529;DHT22;8882;53.192;8.184;2023-02-26T21:45:47;0.40;99.90
17529;DHT22;8882;53.192;8.184;2023-02-26T21:48:12;0.40;99.90
17529;DHT22;8882;53.192;8.184;2023-02-26T21:50:38;0.30;99.90
17529;DHT22;8882;53.192;8.184;2023-02-26T21:53:03;0.40;99.90
17529;DHT22;8882;53.192;8.184;2023-02-26T21:55:29;0.40;99.90
17529;DHT22;8882;53.192;8.184;2023-02-26T21:57:54;0.30;99.90
